Metar Cercanos

 

LEPA - Palma De Mallorc, Spain
Distance from station: ONO 38km
Actualización: Wed, 12-May-2021 2:00pm CEST
Few Clouds
Few Clouds
 Viento del OSO
Viento: OSO 33 km/h
Temperatura: 22°C
Rocío: 11°C
Humedad: 50%
Barómetro: 1015 hPa
Clouds: Few Clouds
Visibility: 10 km
Cloud details: Few Clouds 853 m
2021/05/12 12:00 LEPA 121200Z 24018KT 9999 FEW028 22/11 Q1015 NOSIG
LEMH - Mahon/Menorca Is, Spain
Distance from station: ENE 105km
Actualización: Wed, 12-May-2021 2:00pm CEST
Few Clouds
Few Clouds
 Viento del SO
Viento: SO 33 km/h
Temperatura: 20°C
Rocío: 14°C
Humedad: 69%
Barómetro: 1014 hPa
Clouds: Few Clouds
Visibility: 10 km
Cloud details: Few Clouds 457 m
2021/05/12 12:00 LEMH 121200Z 22018KT 190V250 9999 FEW015 20/14 Q1014
 
LEIB - Ibiza/Es Codola, Spain
Distance from station: OSO 165km
Actualización: Wed, 12-May-2021 2:00pm CEST
Few Clouds
Few Clouds
 Viento del OSO
Viento: OSO 22 km/h
Temperatura: 22°C
Rocío: 16°C
Humedad: 69%
Barómetro: 1016 hPa
Clouds: Few Clouds
Visibility: 10 km
Cloud details: Few Clouds 366 m
2021/05/12 12:00 LEIB 121200Z 24012KT 200V270 9999 FEW012 22/16 Q1016 NOSIG
LEBL - Barcelona Airpor, Spain
Distance from station: NNO 225km
Actualización: Wed, 12-May-2021 2:00pm CEST
Few Clouds
Few Clouds
 Viento del SO
Viento: SO 37 km/h
Temperatura: 21°C
Rocío: 8°C
Humedad: 43%
Barómetro: 1012 hPa
Clouds: Few Clouds
Visibility: 10 km
Cloud details: Few Clouds 1219 m
2021/05/12 12:00 LEBL 121200Z 23020KT 100V250 9999 FEW040 21/08 Q1012 NOSIG
 
LEVC - Valencia (civ/Mi, Spain
Distance from station: NO 188km
Actualización: Wed, 12-May-2021 2:00pm CEST
Few Clouds
Few Clouds
 Viento del ONO
Viento: ONO 28 km/h
Temperatura: 23°C
Rocío: 7°C
Humedad: 36%
Barómetro: 1015 hPa
Clouds: Few Clouds
Visibility: 10 km
Cloud details: Few Clouds 1067 m
2021/05/12 12:00 LEVC 121200Z 29015KT 9999 FEW035 23/07 Q1015 NOSIG
LEGE - Gerona/Costa Bra, Spain
Distance from station: N 276km
Actualización: Wed, 12-May-2021 2:00pm CEST
Few Clouds
Few Clouds
 Viento del OSO
Viento: OSO 22 km/h
Temperatura: 21°C
Rocío: 6°C
Humedad: 38%
Barómetro: 1010 hPa
Clouds: Few Clouds
Visibility: 10 km
Cloud details: Few Clouds 2438 m
2021/05/12 12:00 LEGE 121200Z 25012KT 190V310 9999 FEW080 21/06 Q1010
 
LEAL - Alicante/El Alte, Spain
Distance from station: OSO 344km
Actualización: Wed, 12-May-2021 2:00pm CEST
Despejado
Despejado
 Viento del S
Viento: S 19 km/h
Temperatura: 25°C
Rocío: 8°C
Humedad: 34%
Barómetro: 1016 hPa
Resumen: Despejado
Visibility: greater than 10 km
2021/05/12 12:00 LEAL 121200Z 17010KT 130V210 CAVOK 25/08 Q1016 NOSIG
LEAM - Almeria Airport, Spain
Distance from station: SSO 56km
Actualización: Wed, 12-May-2021 2:00pm CEST
Despejado
Despejado
 Viento del SO
Viento: SO 30 km/h
Temperatura: 20°C
Rocío: 15°C
Humedad: 73%
Barómetro: 1018 hPa
Resumen: Despejado
Visibility: greater than 10 km
2021/05/12 12:00 LEAM 121200Z 22016KT CAVOK 20/15 Q1018
 
LEZG - Zaragoza (mil/Ci, Spain
Distance from station: NO 431km
Actualización: Wed, 12-May-2021 2:00pm CEST
Parcialmente nuboso
Parcialmente nuboso
 Viento del OSO
Viento: OSO 43 km/h
Temperatura: 21°C
Rocío: 6°C
Humedad: 38%
Barómetro: 1013 hPa
Clouds: Parcialmente nuboso
Visibility: 10 km
Cloud details: Parcialmente nuboso 1829 m
2021/05/12 12:00 LEZG 121200Z 25023KT 210V280 9999 SCT060 21/06 Q1013
LEMD - Madrid/Barajas, Spain
Distance from station: ONO 234km
Actualización: Wed, 12-May-2021 2:00pm CEST
Parcialmente nuboso
Parcialmente nuboso
 Viento del SSO
Viento: SSO 20 km/h
Temperatura: 18°C
Rocío: 7°C
Humedad: 49%
Barómetro: 1017 hPa
Clouds: Parcialmente nuboso
Visibility: 10 km
Cloud details: Few Clouds 1219 m
Parcialmente nuboso 2195 m
2021/05/12 12:00 LEMD 121200Z 21011KT 9999 FEW040 SCT072 18/07 Q1017 NOSIG
 
LEGR - Granada Airport, Spain
Distance from station: OSO 62km
Actualización: Wed, 12-May-2021 2:00pm CEST
Few Clouds
Few Clouds
 Viento del varies
Viento: varies 6 km/h
Temperatura: 22°C
Rocío: 7°C
Humedad: 38%
Barómetro: 1021 hPa
Clouds: Few Clouds
Visibility: 10 km
Cloud details: Few Clouds 1524 m
2021/05/12 12:00 LEGR 121200Z VRB03KT 9999 FEW050 22/07 Q1021
LEMG - Malaga (civ/Mil), Spain
Distance from station: OSO 227km
Actualización: Wed, 12-May-2021 2:00pm CEST
Despejado
Despejado
 Viento del NNO
Viento: NNO 20 km/h
Temperatura: 27°C
Rocío: 7°C
Humedad: 28%
Barómetro: 1019 hPa
Resumen: Despejado
Visibility: greater than 10 km
2021/05/12 12:00 LEMG 121200Z 33011KT 290V350 CAVOK 27/07 Q1019 NOSIG
 
LEZL - Sevilla (civ/Mil, Spain
Distance from station: S 318km
Actualización: Wed, 12-May-2021 2:00pm CEST
Few Clouds
Few Clouds
 Viento del OSO
Viento: OSO 9 km/h
Temperatura: 22°C
Rocío: 10°C
Humedad: 47%
Barómetro: 1021 hPa
Clouds: Few Clouds
Visibility: 10 km
Cloud details: Few Clouds 1372 m
2021/05/12 12:00 LEZL 121200Z 25005KT 9999 FEW045 22/10 Q1021 NOSIG
LEVT - Vitoria, Spain
Distance from station: NO 226km
Actualización: Wed, 12-May-2021 2:00pm CEST
Parcialmente nuboso
Parcialmente nuboso
 Viento del SO
Viento: SO 33 km/h, Racha: 56 km/h
Temperatura: 18°C
Rocío: 6°C
Humedad: 46%
Barómetro: 1013 hPa
Clouds: Parcialmente nuboso
Visibility: 10 km
Cloud details: Parcialmente nuboso 1372 m
Parcialmente nuboso 2134 m
2021/05/12 12:00 LEVT 121200Z 23018G30KT 200V280 9999 SCT045 SCT070 18/06 Q1013
 
LEBB - Bilbao/Sondica, Spain
Distance from station: NNO 235km
Actualización: Wed, 12-May-2021 2:00pm CEST
Muy nuboso
Muy nuboso
 Viento del ONO
Viento: ONO 41 km/h, Racha: 63 km/h
Temperatura: 15°C
Rocío: 11°C
Humedad: 77%
Barómetro: 1015 hPa
Clouds: Muy nuboso
Visibility: 10 km
Cloud details: Few Clouds 853 m
Muy nuboso 1646 m
2021/05/12 12:00 LEBB 121200Z 29022G34KT 260V320 9999 FEW028 BKN054 15/11 Q1015 TEMPO 3000 RA BKN010
LESO - San Sebastian/Fu, Spain
Distance from station: N 231km
Actualización: Wed, 12-May-2021 2:00pm CEST
Parcialmente nuboso
Parcialmente nuboso
 Viento del O
Viento: O 15 km/h
Temperatura: 21°C
Rocío: 7°C
Humedad: 40%
Barómetro: 1012 hPa
Clouds: Parcialmente nuboso
Visibility: 10 km
Cloud details: Parcialmente nuboso 1829 m
2021/05/12 12:00 LESO 121200Z 26008KT 200V330 9999 SCT060 21/07 Q1012
 
LEVD - Valladolid(Mil/C, Spain
Distance from station: ONO 239km
Actualización: Wed, 12-May-2021 2:00pm CEST
Muy nuboso
Muy nuboso
 Viento del O
Viento: O 37 km/h
Temperatura: 15°C
Rocío: 6°C
Humedad: 55%
Barómetro: 1016 hPa
Clouds: Muy nuboso
Visibility: 10 km
Cloud details: Parcialmente nuboso 914 m
Muy nuboso 1219 m
2021/05/12 12:00 LEVD 121200Z 27020KT 240V310 9999 SCT030 BKN040 15/06 Q1016
LESA - Salamanca (civ/M, Spain
Distance from station: ONO 349km
Actualización: Wed, 12-May-2021 2:00pm CEST
Parcialmente nuboso
Parcialmente nuboso
 Viento del O
Viento: O 43 km/h, Racha: 63 km/h
Temperatura: 16°C
Rocío: 3°C
Humedad: 42%
Barómetro: 1018 hPa
Clouds: Parcialmente nuboso
Visibility: 10 km
Cloud details: Parcialmente nuboso 1219 m
2021/05/12 12:00 LESA 121200Z 28023G34KT 9999 SCT040 16/03 Q1018
 
LEXJ - Santander/Paraya, Spain
Distance from station: NNO 247km
Actualización: Wed, 12-May-2021 2:00pm CEST
Muy nuboso
Muy nuboso
 Viento del ONO
Viento: ONO 41 km/h, Racha: 61 km/h
Temperatura: 14°C
Rocío: 11°C
Humedad: 82%
Barómetro: 1015 hPa
Clouds: Muy nuboso
Visibility: 10 km
Cloud details: Few Clouds 732 m
Parcialmente nuboso 1036 m
Muy nuboso 1676 m
2021/05/12 12:00 LEXJ 121200Z 29022G33KT 9999 FEW024 SCT034 BKN055 14/11 Q1015
LEAS - Asturias/Aviles, Spain
Distance from station: NO 214km
Actualización: Wed, 12-May-2021 2:00pm CEST
Muy nuboso
Muy nuboso
 Viento del ONO
Viento: ONO 41 km/h
Temperatura: 13°C
Rocío: 9°C
Humedad: 77%
Barómetro: 1016 hPa
Clouds: Muy nuboso
Visibility: 10 km
Cloud details: Few Clouds 305 m
Muy nuboso 914 m
2021/05/12 12:00 LEAS 121200Z 29022KT 260V330 9999 FEW010 BKN030 13/09 Q1016 NOSIG
 
LECO - La Coruna/Alvedr, Spain
Distance from station: ONO 222km
Actualización: Wed, 12-May-2021 2:00pm CEST
Parcialmente nuboso
Parcialmente nuboso
 Viento del ONO
Viento: ONO 15 km/h
Temperatura: 14°C
Rocío: 9°C
Humedad: 72%
Barómetro: 1019 hPa
Clouds: Parcialmente nuboso
Visibility: 10 km
Cloud details: Parcialmente nuboso 1128 m
2021/05/12 12:00 LECO 121200Z 30008KT 240V030 9999 SCT037 14/09 Q1019 NOSIG
LEVX - Vigo/Peinador, Spain
Distance from station: O 214km
Actualización: Wed, 12-May-2021 2:00pm CEST
Muy nuboso
Muy nuboso
 Viento del varies
Viento: varies 15 km/h
Temperatura: 14°C
Rocío: 9°C
Humedad: 72%
Barómetro: 1020 hPa
Clouds: Muy nuboso
Visibility: 10 km
Cloud details: Muy nuboso 914 m
2021/05/12 12:00 LEVX 121200Z VRB08KT 9999 BKN030 14/09 Q1020 NOSIG